createdAt,value
2018-05-18T00:01:27.528Z,4.70
2018-05-18T00:03:54.726Z,4.40
2018-05-18T00:06:21.897Z,4.83
2018-05-18T00:08:48.271Z,4.90
2018-05-18T00:11:15.377Z,4.50
2018-05-18T00:13:42.682Z,4.80
2018-05-18T00:16:09.069Z,4.33
2018-05-18T00:18:36.350Z,4.53
2018-05-18T00:21:03.733Z,4.40
2018-05-18T00:23:30.846Z,4.57
2018-05-18T00:25:58.822Z,4.43
2018-05-18T00:28:25.152Z,5.27
2018-05-18T00:30:51.464Z,5.20
2018-05-18T00:33:17.846Z,4.43
2018-05-18T00:45:29.182Z,4.57
2018-05-18T00:47:55.587Z,4.80
2018-05-18T00:50:21.986Z,4.97
2018-05-18T00:52:48.362Z,4.90
2018-05-18T00:55:27.812Z,4.90
2018-05-18T00:57:55.009Z,4.77
2018-05-18T01:00:22.145Z,4.90
2018-05-18T01:02:48.630Z,5.10
2018-05-18T01:05:14.972Z,5.70
2018-05-18T01:07:41.373Z,4.83
2018-05-18T01:10:07.804Z,4.40
2018-05-18T01:12:34.151Z,5.00
2018-05-18T01:15:00.506Z,4.63
2018-05-18T01:17:26.841Z,5.13
2018-05-18T01:19:53.429Z,4.80
2018-05-18T01:22:20.784Z,4.80
2018-05-18T01:24:48.614Z,5.10
2018-05-18T01:27:16.494Z,4.97
2018-05-18T01:29:42.862Z,4.97
2018-05-18T01:32:09.279Z,4.53
2018-05-18T01:34:36.535Z,5.40
2018-05-18T01:37:03.604Z,5.20
2018-05-18T01:39:31.502Z,4.80
2018-05-18T01:41:57.958Z,4.70
2018-05-18T01:44:27.143Z,4.90
2018-05-18T01:46:53.489Z,5.07
2018-05-18T01:49:19.880Z,4.73
2018-05-18T01:51:47.675Z,4.90
2018-05-18T01:54:14.023Z,5.23
2018-05-18T01:56:41.171Z,4.93
2018-05-18T01:59:07.516Z,4.77
2018-05-18T02:01:35.543Z,4.73
2018-05-18T02:04:02.514Z,5.03
2018-05-18T02:06:28.883Z,4.70
2018-05-18T02:11:28.966Z,5.90
2018-05-18T02:13:56.004Z,5.00
2018-05-18T02:16:22.344Z,5.23
2018-05-18T02:18:50.504Z,5.13
2018-05-18T02:21:17.662Z,5.13
2018-05-18T02:23:45.212Z,5.40
2018-05-18T02:26:12.563Z,5.37
2018-05-18T02:28:38.995Z,5.70
2018-05-18T02:31:06.317Z,4.87
2018-05-18T02:33:33.974Z,4.93
2018-05-18T02:45:46.108Z,5.30
2018-05-18T02:48:13.507Z,5.00
2018-05-18T02:50:41.914Z,5.83
2018-05-18T02:53:08.363Z,5.77
2018-05-18T02:55:34.810Z,6.03
2018-05-18T02:58:01.248Z,5.60
2018-05-18T03:00:27.972Z,5.97
2018-05-18T03:02:54.372Z,5.57
2018-05-18T03:05:20.817Z,5.50
2018-05-18T03:07:48.091Z,5.07
2018-05-18T03:10:16.095Z,5.50
2018-05-18T03:12:42.939Z,6.00
2018-05-18T03:15:10.339Z,5.93
2018-05-18T03:17:36.726Z,5.07
2018-05-18T03:20:03.135Z,5.63
2018-05-18T03:22:32.628Z,5.60
2018-05-18T03:24:59.288Z,5.13
2018-05-18T03:27:26.621Z,5.53
2018-05-18T03:29:52.928Z,5.33
2018-05-18T03:32:19.252Z,5.80
2018-05-18T03:34:47.128Z,5.37
2018-05-18T03:37:14.353Z,5.43
2018-05-18T03:39:40.673Z,5.30
2018-05-18T03:42:07.046Z,5.60
2018-05-18T03:44:33.386Z,5.80
2018-05-18T03:46:59.683Z,5.87
2018-05-18T03:49:25.996Z,5.73
2018-05-18T03:51:52.428Z,6.63
2018-05-18T03:54:18.783Z,6.17
2018-05-18T03:56:46.691Z,7.10
2018-05-18T03:59:13.051Z,5.97
2018-05-18T04:01:51.585Z,6.20
2018-05-18T04:04:30.121Z,6.00
2018-05-18T04:07:09.688Z,5.60
2018-05-18T04:09:36.774Z,9.13
2018-05-18T04:12:03.865Z,6.50
2018-05-18T04:14:31.157Z,6.17
2018-05-18T04:16:57.489Z,6.63
2018-05-18T04:19:23.830Z,5.30
2018-05-18T04:21:50.917Z,6.43
2018-05-18T04:24:17.242Z,5.20
2018-05-18T04:36:28.562Z,6.13
2018-05-18T04:38:55.656Z,6.00
2018-05-18T04:41:22.971Z,6.33
2018-05-18T04:43:50.012Z,6.20
2018-05-18T04:46:16.334Z,5.20
2018-05-18T04:48:43.585Z,9.30
2018-05-18T04:51:11.644Z,6.30
2018-05-18T04:53:37.990Z,6.10
2018-05-18T04:56:04.318Z,5.13
2018-05-18T04:58:33.253Z,6.10
2018-05-18T05:00:59.649Z,5.80
2018-05-18T05:03:26.885Z,5.67
2018-05-18T05:05:53.235Z,5.67
2018-05-18T05:08:20.317Z,4.90
2018-05-18T05:10:46.668Z,6.67
2018-05-18T05:13:13.001Z,5.77
2018-05-18T05:15:39.343Z,6.47
2018-05-18T05:18:06.711Z,6.33
2018-05-18T05:20:33.069Z,5.97
2018-05-18T05:23:00.157Z,5.57
2018-05-18T05:25:26.448Z,6.17
2018-05-18T05:27:53.508Z,6.03
2018-05-18T05:30:20.552Z,5.80
2018-05-18T05:32:47.588Z,5.60
2018-05-18T05:35:13.898Z,5.70
2018-05-18T05:37:40.297Z,5.63
2018-05-18T05:40:06.583Z,5.97
2018-05-18T05:42:33.623Z,5.83
2018-05-18T05:45:00.723Z,4.83
2018-05-18T05:47:27.014Z,5.33
2018-05-18T05:49:54.041Z,5.30
2018-05-18T05:52:20.333Z,5.43
2018-05-18T05:54:47.711Z,5.30
2018-05-18T05:57:14.998Z,5.23
2018-05-18T05:59:42.049Z,5.40
2018-05-18T06:02:09.091Z,6.20
2018-05-18T06:04:36.155Z,5.30
2018-05-18T06:07:03.212Z,5.80
2018-05-18T06:09:29.628Z,5.43
2018-05-18T06:11:55.976Z,5.73
2018-05-18T06:14:22.326Z,5.43
2018-05-18T06:16:48.603Z,6.53
2018-05-18T06:19:14.920Z,6.20
2018-05-18T06:21:41.260Z,5.90
2018-05-18T06:24:07.541Z,6.20
2018-05-18T06:26:33.821Z,5.33
2018-05-18T06:29:00.115Z,6.23
2018-05-18T06:31:26.405Z,6.33
2018-05-18T06:33:53.469Z,5.47
2018-05-18T06:36:19.761Z,5.67
2018-05-18T06:38:46.049Z,6.80
2018-05-18T06:41:12.346Z,5.73
2018-05-18T06:43:38.647Z,6.10
2018-05-18T06:46:04.979Z,6.50
2018-05-18T06:48:31.278Z,5.77
2018-05-18T06:50:57.607Z,6.07
2018-05-18T06:53:23.898Z,6.27
2018-05-18T06:55:50.960Z,6.13
2018-05-18T06:58:17.248Z,6.70
2018-05-18T07:00:43.543Z,6.43
2018-05-18T07:03:09.822Z,6.00
2018-05-18T07:05:36.155Z,5.80
2018-05-18T07:08:03.965Z,7.13
2018-05-18T07:10:30.332Z,6.60
2018-05-18T07:12:56.627Z,5.30
2018-05-18T07:15:22.933Z,5.83
2018-05-18T07:17:49.977Z,5.97
2018-05-18T07:20:17.027Z,5.50
2018-05-18T07:22:44.107Z,5.47
2018-05-18T07:25:10.405Z,4.83
2018-05-18T07:27:37.455Z,5.17
2018-05-18T07:30:04.560Z,5.10
2018-05-18T07:32:30.833Z,4.90
2018-05-18T07:34:59.084Z,5.43
2018-05-18T07:37:25.384Z,5.27
2018-05-18T07:39:51.691Z,4.83
2018-05-18T07:42:18.009Z,6.00
2018-05-18T07:44:44.299Z,4.90
2018-05-18T07:47:10.605Z,4.60
2018-05-18T07:49:36.933Z,5.17
2018-05-18T07:52:03.359Z,4.53
2018-05-18T07:54:29.752Z,5.00
2018-05-18T07:56:56.985Z,4.93
2018-05-18T07:59:24.088Z,4.80
2018-05-18T08:01:50.488Z,4.77
2018-05-18T08:04:18.527Z,4.23
2018-05-18T08:06:45.379Z,5.67
2018-05-18T08:09:13.208Z,4.97
2018-05-18T08:11:42.300Z,4.23
2018-05-18T08:14:08.687Z,4.27
2018-05-18T08:16:35.826Z,4.33
2018-05-18T08:19:02.975Z,4.90
2018-05-18T08:21:29.350Z,4.00
2018-05-18T08:23:55.757Z,4.50
2018-05-18T08:26:24.489Z,4.00
2018-05-18T08:29:04.348Z,4.50
2018-05-18T08:31:31.624Z,4.33
2018-05-18T08:33:58.737Z,4.40
2018-05-18T08:36:25.108Z,4.47
2018-05-18T08:38:51.479Z,3.80
2018-05-18T08:41:17.823Z,3.97
2018-05-18T08:43:44.148Z,3.77
2018-05-18T08:46:11.169Z,3.80
2018-05-18T08:48:38.467Z,3.90
2018-05-18T08:51:05.700Z,4.17
2018-05-18T08:53:33.237Z,3.87
2018-05-18T08:55:59.590Z,4.17
2018-05-18T09:11:21.067Z,4.13
2018-05-18T09:13:48.140Z,4.47
2018-05-18T09:16:14.587Z,3.70
2018-05-18T09:18:40.990Z,4.63
2018-05-18T09:21:08.024Z,3.83
2018-05-18T09:23:34.312Z,4.10
2018-05-18T09:26:00.625Z,4.23
2018-05-18T09:28:26.929Z,4.70
2018-05-18T09:30:53.976Z,4.40
2018-05-18T09:33:20.991Z,5.20
2018-05-18T09:35:47.284Z,4.73
2018-05-18T09:38:13.573Z,4.67
2018-05-18T09:40:39.872Z,4.80
2018-05-18T09:43:06.187Z,4.37
2018-05-18T09:45:32.487Z,4.47
2018-05-18T09:47:58.748Z,4.87
2018-05-18T09:50:25.073Z,4.17
2018-05-18T09:52:51.364Z,4.53
2018-05-18T09:55:18.557Z,4.57
2018-05-18T09:57:44.859Z,4.33
2018-05-18T10:00:11.913Z,4.47
2018-05-18T10:02:38.973Z,4.63
2018-05-18T10:05:05.283Z,5.13
2018-05-18T10:07:32.343Z,4.80
2018-05-18T10:09:58.622Z,4.30
2018-05-18T10:12:24.949Z,4.80
2018-05-18T10:14:51.215Z,4.50
2018-05-18T10:17:18.490Z,4.97
2018-05-18T10:19:44.780Z,4.77
2018-05-18T10:22:11.070Z,4.83
2018-05-18T10:24:37.359Z,4.73
2018-05-18T10:27:04.471Z,4.97
2018-05-18T10:29:30.730Z,4.87
2018-05-18T10:31:57.793Z,4.17
2018-05-18T10:34:24.814Z,4.77
2018-05-18T10:36:51.124Z,4.30
2018-05-18T10:39:17.421Z,4.60
2018-05-18T10:41:43.727Z,4.37
2018-05-18T10:44:10.009Z,4.33
2018-05-18T10:46:36.293Z,4.80
2018-05-18T10:49:03.354Z,4.67
2018-05-18T10:51:29.637Z,4.57
2018-05-18T10:53:55.931Z,5.00
2018-05-18T10:56:22.342Z,5.47
2018-05-18T10:58:48.631Z,4.63
2018-05-18T11:01:14.943Z,5.20
2018-05-18T11:03:41.268Z,4.90
2018-05-18T11:06:11.079Z,5.37
2018-05-18T11:08:37.367Z,6.10
2018-05-18T11:11:04.394Z,5.90
2018-05-18T11:13:30.691Z,4.77
2018-05-18T11:15:56.983Z,4.87
2018-05-18T11:18:24.016Z,5.27
2018-05-18T11:20:51.047Z,4.70
2018-05-18T11:23:17.340Z,5.33
2018-05-18T11:25:43.655Z,5.40
2018-05-18T11:28:09.948Z,5.47
2018-05-18T11:30:36.265Z,5.07
2018-05-18T11:33:02.619Z,5.17
2018-05-18T11:35:28.868Z,5.20
2018-05-18T11:37:55.153Z,4.90
2018-05-18T11:40:21.435Z,5.43
2018-05-18T11:42:47.751Z,5.37
2018-05-18T11:45:14.044Z,4.83
2018-05-18T11:47:40.350Z,5.27
2018-05-18T11:50:06.638Z,4.67
2018-05-18T11:52:33.688Z,4.80
2018-05-18T11:54:59.964Z,5.60
2018-05-18T11:57:26.230Z,4.63
2018-05-18T11:59:53.274Z,5.27
2018-05-18T12:02:19.578Z,5.00
2018-05-18T12:04:45.865Z,5.37
2018-05-18T12:07:12.157Z,6.27
2018-05-18T12:09:38.442Z,5.67
2018-05-18T12:12:04.735Z,5.13
2018-05-18T12:14:31.765Z,4.90
2018-05-18T12:16:58.057Z,5.73
2018-05-18T12:19:24.345Z,5.13
2018-05-18T12:21:50.634Z,5.17
2018-05-18T12:24:16.931Z,5.07
2018-05-18T12:26:43.225Z,6.70
2018-05-18T12:29:09.548Z,6.27
2018-05-18T12:31:35.941Z,11.90
2018-05-18T12:34:02.177Z,5.90
2018-05-18T12:36:28.503Z,5.77
2018-05-18T12:38:54.846Z,5.07
2018-05-18T12:41:21.157Z,5.60
2018-05-18T12:43:47.457Z,5.53
2018-05-18T12:46:13.747Z,5.57
2018-05-18T12:48:40.045Z,4.97
2018-05-18T12:51:06.339Z,5.20
2018-05-18T12:53:33.438Z,4.80
2018-05-18T12:55:59.824Z,4.93
2018-05-18T12:58:26.249Z,5.70
2018-05-18T13:00:52.587Z,5.37
2018-05-18T13:03:19.636Z,5.50
2018-05-18T13:05:47.495Z,5.10
2018-05-18T13:08:15.198Z,5.23
2018-05-18T13:10:41.538Z,6.03
2018-05-18T13:13:08.837Z,4.80
2018-05-18T13:15:35.991Z,6.43
2018-05-18T13:18:03.297Z,5.60
2018-05-18T13:20:29.656Z,5.63
2018-05-18T13:22:55.972Z,5.50
2018-05-18T13:25:22.321Z,4.93
2018-05-18T13:27:49.356Z,5.47
2018-05-18T13:30:16.520Z,5.37
2018-05-18T13:32:42.843Z,5.03
2018-05-18T13:35:10.221Z,5.53
2018-05-18T13:37:37.320Z,6.03
2018-05-18T13:40:03.697Z,5.40
2018-05-18T13:42:30.014Z,5.13
2018-05-18T13:44:56.382Z,5.70
2018-05-18T13:47:22.723Z,4.70
2018-05-18T13:49:49.068Z,4.47
2018-05-18T13:52:15.373Z,4.77
2018-05-18T13:54:42.458Z,4.83
2018-05-18T13:57:08.867Z,4.83
2018-05-18T13:59:35.635Z,5.87
2018-05-18T14:02:01.972Z,5.13
2018-05-18T14:14:13.276Z,5.13
2018-05-18T14:16:39.578Z,5.70
2018-05-18T14:19:05.885Z,5.27
2018-05-18T14:21:32.204Z,5.07
2018-05-18T14:23:58.492Z,6.90
2018-05-18T14:26:25.617Z,4.87
2018-05-18T14:28:52.595Z,5.43
2018-05-18T14:31:19.626Z,5.53
2018-05-18T14:33:45.920Z,5.83
2018-05-18T14:36:12.238Z,4.83
2018-05-18T14:38:38.555Z,5.53
2018-05-18T14:41:04.863Z,5.60
2018-05-18T14:43:31.157Z,5.70
2018-05-18T14:45:57.489Z,5.50
2018-05-18T14:48:23.772Z,5.90
2018-05-18T14:50:50.073Z,5.37
2018-05-18T14:53:17.182Z,5.60
2018-05-18T14:55:43.501Z,5.73
2018-05-18T14:58:09.852Z,5.47
2018-05-18T15:00:36.166Z,5.80
2018-05-18T15:03:02.497Z,5.93
2018-05-18T15:05:28.795Z,5.47
2018-05-18T15:07:55.137Z,4.93
2018-05-18T15:10:21.428Z,5.23
2018-05-18T15:12:47.725Z,6.33
2018-05-18T15:15:14.037Z,5.40
2018-05-18T15:17:40.337Z,5.33
2018-05-18T15:20:07.402Z,6.03
2018-05-18T15:22:33.785Z,5.93
2018-05-18T15:25:00.853Z,6.00
2018-05-18T15:27:27.177Z,5.80
2018-05-18T15:29:53.500Z,5.77
2018-05-18T15:32:19.790Z,5.40
2018-05-18T15:34:46.094Z,5.13
2018-05-18T15:37:13.229Z,5.37
2018-05-18T15:39:39.454Z,5.33
2018-05-18T15:42:05.750Z,5.53
2018-05-18T15:44:32.075Z,5.53
2018-05-18T15:46:58.376Z,5.43
2018-05-18T15:49:24.709Z,5.87
2018-05-18T15:51:51.751Z,5.80
2018-05-18T15:54:18.061Z,5.37
2018-05-18T15:56:44.364Z,5.30
2018-05-18T15:59:11.406Z,5.10
2018-05-18T16:01:37.707Z,5.90
2018-05-18T16:04:04.147Z,5.40
2018-05-18T16:06:30.486Z,5.47
2018-05-18T16:08:56.796Z,5.53
2018-05-18T16:11:23.119Z,5.40
2018-05-18T16:13:49.444Z,5.40
2018-05-18T16:16:16.490Z,6.53
2018-05-18T16:18:43.525Z,5.70
2018-05-18T16:21:10.600Z,5.80
2018-05-18T16:23:37.666Z,5.27
2018-05-18T16:26:04.006Z,5.97
2018-05-18T16:28:30.329Z,5.80
2018-05-18T16:30:56.656Z,6.23
2018-05-18T16:33:22.977Z,5.73
2018-05-18T16:35:49.272Z,6.10
2018-05-18T16:38:15.577Z,4.70
2018-05-18T16:40:41.883Z,5.60
2018-05-18T16:43:08.203Z,5.73
2018-05-18T16:45:34.529Z,5.30
2018-05-18T16:48:00.887Z,5.67
2018-05-18T16:50:27.168Z,5.57
2018-05-18T16:52:54.283Z,5.57
2018-05-18T16:55:20.545Z,5.23
2018-05-18T16:57:47.568Z,5.07
2018-05-18T17:00:13.901Z,5.87
2018-05-18T17:02:40.226Z,5.73
2018-05-18T17:05:06.529Z,4.97
2018-05-18T17:07:32.834Z,5.33
2018-05-18T17:09:59.135Z,5.37
2018-05-18T17:12:25.452Z,5.17
2018-05-18T17:14:52.485Z,5.13
2018-05-18T17:17:19.528Z,6.23
2018-05-18T17:19:45.929Z,5.37
2018-05-18T17:22:12.149Z,5.23
2018-05-18T17:24:39.168Z,5.47
2018-05-18T17:27:05.507Z,5.77
2018-05-18T17:29:31.804Z,4.87
2018-05-18T17:31:58.135Z,5.53
2018-05-18T17:34:24.438Z,4.80
2018-05-18T17:36:50.738Z,5.07
2018-05-18T17:39:17.778Z,4.70
2018-05-18T17:41:44.138Z,5.53
2018-05-18T17:44:10.442Z,5.47
2018-05-18T17:46:36.756Z,5.20
2018-05-18T17:49:03.110Z,4.67
2018-05-18T17:51:30.135Z,5.23
2018-05-18T17:53:56.423Z,5.23
2018-05-18T17:56:26.188Z,4.87
2018-05-18T17:58:53.660Z,4.53
2018-05-18T18:01:20.816Z,4.60
2018-05-18T18:03:47.950Z,5.17
2018-05-18T18:06:15.859Z,4.50
2018-05-18T18:08:42.429Z,5.07
2018-05-18T18:11:09.057Z,4.83
2018-05-18T18:13:38.336Z,4.90
2018-05-18T18:16:05.293Z,4.67
2018-05-18T18:18:31.712Z,4.33
2018-05-18T18:21:00.330Z,4.37
2018-05-18T18:33:12.668Z,4.40
2018-05-18T18:35:39.028Z,4.93
2018-05-18T18:38:06.421Z,4.70
2018-05-18T18:50:18.112Z,4.10
2018-05-18T18:52:44.538Z,4.87
2018-05-18T18:55:11.838Z,4.13
2018-05-18T19:07:23.256Z,4.90
2018-05-18T19:09:49.646Z,4.73
2018-05-18T19:12:16.753Z,4.87
2018-05-18T19:14:43.182Z,4.63
2018-05-18T19:17:09.555Z,4.97
2018-05-18T19:19:35.935Z,5.40
2018-05-18T19:22:02.611Z,5.70
2018-05-18T19:24:30.042Z,5.67
2018-05-18T19:26:57.219Z,5.53
2018-05-18T19:29:24.429Z,5.10
2018-05-18T19:31:50.785Z,4.77
2018-05-18T19:34:18.269Z,5.40
2018-05-18T19:36:45.526Z,5.57
2018-05-18T19:39:11.880Z,5.50
2018-05-18T19:41:38.977Z,5.17
2018-05-18T19:44:06.186Z,4.93
2018-05-18T19:46:32.521Z,5.07
2018-05-18T19:48:59.612Z,5.00
2018-05-18T19:51:25.972Z,5.00
2018-05-18T19:53:52.902Z,4.90
2018-05-18T19:56:19.198Z,4.87
2018-05-18T19:58:46.188Z,4.83
2018-05-18T20:01:13.262Z,4.83
2018-05-18T20:03:40.378Z,5.90
2018-05-18T20:06:06.619Z,4.97
2018-05-18T20:08:34.982Z,4.47
2018-05-18T20:11:02.276Z,5.07
2018-05-18T20:13:28.647Z,5.07
2018-05-18T20:15:54.993Z,6.50
2018-05-18T20:18:21.292Z,4.60
2018-05-18T20:20:47.590Z,4.83
2018-05-18T20:23:13.888Z,5.03
2018-05-18T20:25:40.213Z,4.87
2018-05-18T20:28:10.324Z,5.50
2018-05-18T20:30:37.592Z,5.03
2018-05-18T20:33:03.877Z,4.87
2018-05-18T20:35:30.170Z,5.37
2018-05-18T20:37:56.564Z,6.17
2018-05-18T20:40:22.914Z,6.37
2018-05-18T20:42:49.238Z,6.90
2018-05-18T20:45:15.656Z,5.87
2018-05-18T20:47:41.988Z,5.83
2018-05-18T20:50:08.331Z,5.07
2018-05-18T20:52:34.663Z,5.97
2018-05-18T20:55:00.979Z,5.33
2018-05-18T20:57:30.692Z,5.50
2018-05-18T20:59:57.010Z,5.07
2018-05-18T21:02:23.758Z,5.63
2018-05-18T21:04:50.082Z,5.57
2018-05-18T21:07:16.368Z,5.03
2018-05-18T21:09:42.739Z,6.00
2018-05-18T21:12:09.042Z,6.67
2018-05-18T21:14:35.358Z,5.90
2018-05-18T21:17:01.684Z,5.97
2018-05-18T21:19:28.229Z,6.03
2018-05-18T21:21:56.280Z,6.47
2018-05-18T21:24:22.568Z,5.73
2018-05-18T21:26:48.912Z,6.87
2018-05-18T21:29:15.335Z,6.30
2018-05-18T21:31:41.668Z,6.73
2018-05-18T21:34:09.508Z,6.77
2018-05-18T21:36:37.581Z,7.03
2018-05-18T21:39:05.771Z,6.70
2018-05-18T21:41:33.830Z,6.30
2018-05-18T21:44:01.254Z,6.67
2018-05-18T21:46:27.600Z,7.20
2018-05-18T21:48:53.886Z,6.60
2018-05-18T21:51:20.208Z,7.10
2018-05-18T21:53:47.502Z,6.53
2018-05-18T21:56:14.062Z,6.80
2018-05-18T21:58:40.360Z,6.30
2018-05-18T22:01:06.700Z,6.73
2018-05-18T22:03:33.011Z,7.10
2018-05-18T22:06:00.177Z,7.07
2018-05-18T22:08:26.494Z,7.70
2018-05-18T22:10:53.128Z,8.17
2018-05-18T22:13:19.470Z,8.57
2018-05-18T22:15:45.794Z,7.70
2018-05-18T22:18:12.155Z,7.93
2018-05-18T22:20:38.476Z,6.97
2018-05-18T22:23:05.606Z,7.80
2018-05-18T22:25:31.992Z,6.63
2018-05-18T22:27:58.350Z,7.73
2018-05-18T22:30:24.712Z,7.83
2018-05-18T22:32:52.022Z,7.67
2018-05-18T22:35:19.286Z,7.33
2018-05-18T22:37:46.354Z,8.27
2018-05-18T22:40:12.716Z,7.67
2018-05-18T22:42:39.946Z,8.23
2018-05-18T22:45:06.608Z,7.23
2018-05-18T22:47:34.056Z,7.23
2018-05-18T22:50:00.382Z,7.47
2018-05-18T22:52:26.691Z,8.27
2018-05-18T22:54:53.023Z,7.67
2018-05-18T22:57:19.347Z,7.90
2018-05-18T22:59:45.716Z,7.83
2018-05-18T23:11:57.226Z,9.07
2018-05-18T23:14:24.230Z,8.90
2018-05-18T23:16:50.576Z,8.57
2018-05-18T23:19:17.676Z,9.30
2018-05-18T23:21:44.002Z,9.87
2018-05-18T23:24:11.135Z,8.80
2018-05-18T23:26:39.000Z,8.67
2018-05-18T23:29:05.360Z,8.30
2018-05-18T23:31:32.067Z,8.97
2018-05-18T23:34:00.043Z,8.37
2018-05-18T23:36:27.338Z,8.70
2018-05-18T23:38:55.156Z,8.87
2018-05-18T23:51:06.543Z,9.00
2018-05-18T23:53:33.140Z,9.13
2018-05-18T23:55:59.499Z,8.80
2018-05-18T23:58:25.826Z,9.27
